createdAt,value
2022-08-22T00:02:26.246Z,17.40
2022-08-22T00:02:59.227Z,17.69
2022-08-22T00:05:02.775Z,17.40
2022-08-22T00:07:42.870Z,17.39
2022-08-22T00:10:24.941Z,17.37
2022-08-22T00:13:02.147Z,17.32
2022-08-22T00:15:43.485Z,17.28
2022-08-22T00:18:18.082Z,17.29
2022-08-22T00:20:50.334Z,17.27
2022-08-22T00:23:28.427Z,17.25
2022-08-22T00:26:02.983Z,17.21
2022-08-22T00:28:35.576Z,17.16
2022-08-22T00:31:31.834Z,17.15
2022-08-22T00:34:05.627Z,17.17
2022-08-22T00:36:39.020Z,17.12
2022-08-22T00:39:16.972Z,17.09
2022-08-22T00:42:31.262Z,17.09
2022-08-22T00:45:40.839Z,17.06
2022-08-22T00:48:40.214Z,17.01
2022-08-22T00:51:34.872Z,17.00
2022-08-22T00:54:17.858Z,16.99
2022-08-22T00:57:20.544Z,16.98
2022-08-22T01:00:20.770Z,16.94
2022-08-22T01:03:29.070Z,16.97
2022-08-22T01:06:09.260Z,16.96
2022-08-22T01:08:55.125Z,16.93
2022-08-22T01:11:47.424Z,16.91
2022-08-22T01:14:35.007Z,16.89
2022-08-22T01:17:16.895Z,16.88
2022-08-22T01:20:19.185Z,16.85
2022-08-22T01:23:27.049Z,16.82
2022-08-22T01:26:25.769Z,16.79
2022-08-22T01:29:31.584Z,16.78
2022-08-22T01:32:36.493Z,16.79
2022-08-22T01:35:42.346Z,16.74
2022-08-22T01:38:34.859Z,16.73
2022-08-22T01:41:19.969Z,16.71
2022-08-22T01:44:09.016Z,16.76
2022-08-22T01:46:48.539Z,16.72
2022-08-22T01:49:22.912Z,16.71
2022-08-22T01:51:58.528Z,16.67
2022-08-22T01:54:36.073Z,16.71
2022-08-22T01:57:08.234Z,16.69
2022-08-22T01:59:42.612Z,16.67
2022-08-22T02:02:26.235Z,16.63
2022-08-22T02:05:01.114Z,16.63
2022-08-22T02:07:39.941Z,16.59
2022-08-22T02:10:16.793Z,16.57
2022-08-22T02:12:54.041Z,16.53
2022-08-22T02:15:25.524Z,16.53
2022-08-22T02:18:12.401Z,16.52
2022-08-22T02:20:55.152Z,16.53
2022-08-22T02:23:37.286Z,16.52
2022-08-22T02:26:09.788Z,16.50
2022-08-22T02:28:56.443Z,16.58
2022-08-22T02:31:38.264Z,16.56
2022-08-22T02:34:24.271Z,16.51
2022-08-22T02:36:58.217Z,16.48
2022-08-22T02:39:37.202Z,16.48
2022-08-22T02:42:21.387Z,16.46
2022-08-22T02:44:59.176Z,16.42
2022-08-22T02:47:34.045Z,16.41
2022-08-22T02:50:12.969Z,16.36
2022-08-22T02:52:58.703Z,16.36
2022-08-22T02:55:40.002Z,16.34
2022-08-22T02:58:15.649Z,16.30
2022-08-22T03:00:48.656Z,16.31
2022-08-22T03:03:22.019Z,16.27
2022-08-22T03:06:01.413Z,16.22
2022-08-22T03:08:33.406Z,16.20
2022-08-22T03:11:23.087Z,16.15
2022-08-22T03:14:00.102Z,16.15
2022-08-22T03:16:36.345Z,16.13
2022-08-22T03:19:13.225Z,16.09
2022-08-22T03:21:57.834Z,16.06
2022-08-22T03:24:37.940Z,16.04
2022-08-22T03:27:12.085Z,16.03
2022-08-22T03:29:47.966Z,16.02
2022-08-22T03:32:19.315Z,16.00
2022-08-22T03:34:59.281Z,15.98
2022-08-22T03:37:39.172Z,15.94
2022-08-22T03:40:23.673Z,15.87
2022-08-22T03:43:40.343Z,15.85
2022-08-22T03:46:55.887Z,15.81
2022-08-22T03:50:00.926Z,15.78
2022-08-22T03:53:19.030Z,15.73
2022-08-22T03:56:21.711Z,15.72
2022-08-22T03:59:16.420Z,15.65
2022-08-22T04:02:41.755Z,15.66
2022-08-22T04:05:20.012Z,15.64
2022-08-22T04:08:31.878Z,15.59
2022-08-22T04:11:21.564Z,15.51
2022-08-22T04:14:34.203Z,15.52
2022-08-22T04:17:37.771Z,15.49
2022-08-22T04:20:26.888Z,15.44
2022-08-22T04:23:36.622Z,15.38
2022-08-22T04:26:14.380Z,15.41
2022-08-22T04:28:47.834Z,15.38
2022-08-22T04:31:19.873Z,15.34
2022-08-22T04:33:55.317Z,15.28
2022-08-22T04:36:32.103Z,15.29
2022-08-22T04:39:05.909Z,15.26
2022-08-22T04:41:42.777Z,15.23
2022-08-22T04:44:17.197Z,15.15
2022-08-22T04:46:50.689Z,15.16
2022-08-22T04:49:27.689Z,15.15
2022-08-22T04:52:04.208Z,15.06
2022-08-22T04:54:46.918Z,15.06
2022-08-22T04:57:29.167Z,15.05
2022-08-22T05:00:00.482Z,15.02
2022-08-22T05:02:28.935Z,15.03
2022-08-22T05:05:05.027Z,15.01
2022-08-22T05:07:47.136Z,14.98
2022-08-22T05:10:21.027Z,14.97
2022-08-22T05:12:54.976Z,14.97
2022-08-22T05:15:27.299Z,14.95
2022-08-22T05:18:00.040Z,14.97
2022-08-22T05:20:31.218Z,14.99
2022-08-22T05:23:00.841Z,15.00
2022-08-22T05:25:32.842Z,15.03
2022-08-22T05:28:12.198Z,14.99
2022-08-22T05:30:41.057Z,15.00
2022-08-22T05:33:19.744Z,15.03
2022-08-22T05:35:57.851Z,15.04
2022-08-22T05:38:31.507Z,15.05
2022-08-22T05:41:06.815Z,15.08
2022-08-22T05:43:38.608Z,15.13
2022-08-22T05:46:10.935Z,15.22
2022-08-22T05:48:43.816Z,15.25
2022-08-22T05:51:21.548Z,15.27
2022-08-22T05:53:53.608Z,15.28
2022-08-22T05:56:28.564Z,15.33
2022-08-22T05:59:01.679Z,15.36
2022-08-22T06:01:33.679Z,15.41
2022-08-22T06:04:08.117Z,15.47
2022-08-22T06:06:42.528Z,15.55
2022-08-22T06:09:18.997Z,15.58
2022-08-22T06:11:53.982Z,15.64
2022-08-22T06:14:32.719Z,15.69
2022-08-22T06:17:07.573Z,15.77
2022-08-22T06:19:40.246Z,15.79
2022-08-22T06:22:13.756Z,15.90
2022-08-22T06:24:49.990Z,15.98
2022-08-22T06:27:22.973Z,16.06
2022-08-22T06:29:56.045Z,16.09
2022-08-22T06:32:52.850Z,16.22
2022-08-22T06:35:23.527Z,16.27
2022-08-22T06:37:57.678Z,16.34
2022-08-22T06:40:29.337Z,16.44
2022-08-22T06:42:59.915Z,16.48
2022-08-22T06:45:32.074Z,16.58
2022-08-22T06:48:16.125Z,16.63
2022-08-22T06:50:46.840Z,16.73
2022-08-22T06:53:19.657Z,16.80
2022-08-22T06:55:52.133Z,16.95
2022-08-22T06:58:32.828Z,17.04
2022-08-22T07:01:11.705Z,17.27
2022-08-22T07:03:44.907Z,17.52
2022-08-22T07:06:17.026Z,17.77
2022-08-22T07:08:53.626Z,18.02
2022-08-22T07:11:28.002Z,18.33
2022-08-22T07:14:01.839Z,18.60
2022-08-22T07:16:32.875Z,18.93
2022-08-22T07:19:01.280Z,19.27
2022-08-22T07:21:36.068Z,19.52
2022-08-22T07:24:06.720Z,19.67
2022-08-22T07:26:51.799Z,20.16
2022-08-22T07:29:29.133Z,20.49
2022-08-22T07:32:06.012Z,20.51
2022-08-22T07:34:46.792Z,20.56
2022-08-22T07:37:18.314Z,20.77
2022-08-22T07:39:54.567Z,20.94
2022-08-22T07:42:30.434Z,21.14
2022-08-22T07:45:06.447Z,21.33
2022-08-22T07:47:59.363Z,21.31
2022-08-22T07:50:37.643Z,21.31
2022-08-22T07:53:17.299Z,21.38
2022-08-22T07:55:49.880Z,21.56
2022-08-22T07:58:19.757Z,21.54
2022-08-22T08:00:51.542Z,21.53
2022-08-22T08:03:23.280Z,21.46
2022-08-22T08:05:51.849Z,21.67
2022-08-22T08:08:26.531Z,21.79
2022-08-22T08:10:59.891Z,21.95
2022-08-22T08:13:32.855Z,22.24
2022-08-22T08:16:01.697Z,22.32
2022-08-22T08:18:33.960Z,22.63
2022-08-22T08:21:08.433Z,22.68
2022-08-22T08:23:39.768Z,22.76
2022-08-22T08:26:15.841Z,22.74
2022-08-22T08:28:47.872Z,22.74
2022-08-22T08:31:23.811Z,22.86
2022-08-22T08:34:00.082Z,23.04
2022-08-22T08:36:37.925Z,23.13
2022-08-22T08:39:17.774Z,23.00
2022-08-22T08:42:24.683Z,23.26
2022-08-22T08:45:28.859Z,23.37
2022-08-22T08:48:17.642Z,23.57
2022-08-22T08:51:04.242Z,23.49
2022-08-22T08:53:57.254Z,23.58
2022-08-22T08:56:33.852Z,23.65
2022-08-22T08:59:13.149Z,23.59
2022-08-22T09:02:07.281Z,24.01
2022-08-22T09:05:08.017Z,24.28
2022-08-22T09:07:47.859Z,24.38
2022-08-22T09:10:34.922Z,24.01
2022-08-22T09:13:40.899Z,23.73
2022-08-22T09:16:28.076Z,23.59
2022-08-22T09:19:20.150Z,23.81
2022-08-22T09:22:14.298Z,23.98
2022-08-22T09:25:01.841Z,23.90
2022-08-22T09:27:39.211Z,23.82
2022-08-22T09:30:12.699Z,24.09
2022-08-22T09:32:54.638Z,24.30
2022-08-22T09:35:31.948Z,24.22
2022-08-22T09:38:30.610Z,24.18
2022-08-22T09:41:12.466Z,24.45
2022-08-22T09:43:48.746Z,24.65
2022-08-22T09:46:31.472Z,24.67
2022-08-22T09:49:12.803Z,24.61
2022-08-22T09:51:46.214Z,24.65
2022-08-22T09:54:22.940Z,24.50
2022-08-22T09:57:14.025Z,24.57
2022-08-22T09:59:58.077Z,24.50
2022-08-22T10:02:36.366Z,24.45
2022-08-22T10:05:40.872Z,24.26
2022-08-22T10:08:36.189Z,24.00
2022-08-22T10:11:20.973Z,23.53
2022-08-22T10:14:01.576Z,23.54
2022-08-22T10:16:42.183Z,23.40
2022-08-22T10:19:18.693Z,23.23
2022-08-22T10:22:07.692Z,23.16
2022-08-22T10:24:44.700Z,23.05
2022-08-22T10:27:17.870Z,22.98
2022-08-22T10:30:01.832Z,22.98
2022-08-22T10:32:37.690Z,22.90
2022-08-22T10:35:34.040Z,22.80
2022-08-22T10:38:10.543Z,22.79
2022-08-22T10:40:44.641Z,22.80
2022-08-22T10:43:28.791Z,22.73
2022-08-22T10:46:04.527Z,22.69
2022-08-22T10:48:48.071Z,22.57
2022-08-22T10:51:29.157Z,22.50
2022-08-22T10:54:14.723Z,22.51
2022-08-22T10:56:53.995Z,22.32
2022-08-22T10:59:38.047Z,22.37
2022-08-22T11:02:30.496Z,22.36
2022-08-22T11:05:28.474Z,22.23
2022-08-22T11:08:14.825Z,22.39
2022-08-22T11:11:05.080Z,22.45
2022-08-22T11:13:43.238Z,22.47
2022-08-22T11:16:23.889Z,22.63
2022-08-22T11:19:28.692Z,22.67
2022-08-22T11:22:10.236Z,22.60
2022-08-22T11:25:11.242Z,22.62
2022-08-22T11:27:50.875Z,22.68
2022-08-22T11:30:25.974Z,22.79
2022-08-22T11:33:33.880Z,22.97
2022-08-22T11:36:31.111Z,23.41
2022-08-22T11:39:17.948Z,23.56
2022-08-22T11:41:56.310Z,23.71
2022-08-22T11:44:34.550Z,23.31
2022-08-22T11:47:12.115Z,23.25
2022-08-22T11:49:51.642Z,23.27
2022-08-22T11:52:29.801Z,23.14
2022-08-22T11:55:21.534Z,22.94
2022-08-22T11:57:52.718Z,22.82
2022-08-22T12:00:33.896Z,22.78
2022-08-22T12:03:36.239Z,22.77
2022-08-22T12:06:15.366Z,22.60
2022-08-22T12:09:18.031Z,22.66
2022-08-22T12:12:00.063Z,22.60
2022-08-22T12:14:34.637Z,22.55
2022-08-22T12:17:26.284Z,22.56
2022-08-22T12:20:20.239Z,22.61
2022-08-22T12:23:18.458Z,22.41
2022-08-22T12:26:11.061Z,22.40
2022-08-22T12:28:47.038Z,22.30
2022-08-22T12:31:26.476Z,22.33
2022-08-22T12:34:07.969Z,22.18
2022-08-22T12:36:51.065Z,22.27
2022-08-22T12:40:00.408Z,22.23
2022-08-22T12:43:15.360Z,22.26
2022-08-22T12:46:06.395Z,22.31
2022-08-22T12:49:09.216Z,22.27
2022-08-22T12:51:56.103Z,22.18
2022-08-22T12:55:01.697Z,22.20
2022-08-22T12:57:40.909Z,22.21
2022-08-22T13:00:27.057Z,22.20
2022-08-22T13:03:00.516Z,22.31
2022-08-22T13:05:40.431Z,22.42
2022-08-22T13:11:38.394Z,22.69
2022-08-22T13:14:19.598Z,22.53
2022-08-22T13:16:57.677Z,22.70
2022-08-22T13:19:29.352Z,22.61
2022-08-22T13:22:04.516Z,22.58
2022-08-22T13:24:40.140Z,22.51
2022-08-22T13:27:24.595Z,22.60
2022-08-22T13:30:00.308Z,22.55
2022-08-22T13:32:34.027Z,22.49
2022-08-22T13:35:04.066Z,22.47
2022-08-22T13:37:38.077Z,22.49
2022-08-22T13:40:11.529Z,22.52
2022-08-22T13:42:55.393Z,22.54
2022-08-22T13:45:26.105Z,22.52
2022-08-22T13:47:58.590Z,22.49
2022-08-22T13:50:35.856Z,22.43
2022-08-22T13:53:32.425Z,22.32
2022-08-22T13:56:15.512Z,22.34
2022-08-22T13:58:51.444Z,22.42
2022-08-22T14:01:33.182Z,22.33
2022-08-22T14:04:28.492Z,22.36
2022-08-22T14:07:14.689Z,22.36
2022-08-22T14:09:54.403Z,22.34
2022-08-22T14:12:26.203Z,22.24
2022-08-22T14:14:58.668Z,22.22
2022-08-22T14:17:34.442Z,22.21
2022-08-22T14:20:11.179Z,22.17
2022-08-22T14:22:43.872Z,22.14
2022-08-22T14:25:21.268Z,22.08
2022-08-22T14:27:59.437Z,22.12
2022-08-22T14:30:33.502Z,22.08
2022-08-22T14:33:14.924Z,22.09
2022-08-22T14:35:52.953Z,22.11
2022-08-22T14:38:30.660Z,22.17
2022-08-22T14:41:05.514Z,22.15
2022-08-22T14:43:52.470Z,22.12
2022-08-22T14:46:27.918Z,22.12
2022-08-22T14:49:26.867Z,22.19
2022-08-22T14:52:05.404Z,22.24
2022-08-22T14:54:34.475Z,22.29
2022-08-22T14:57:19.766Z,22.31
2022-08-22T14:59:51.797Z,22.36
2022-08-22T15:02:27.820Z,22.39
2022-08-22T15:04:57.242Z,22.46
2022-08-22T15:07:29.549Z,22.43
2022-08-22T15:10:03.846Z,22.42
2022-08-22T15:12:38.736Z,22.31
2022-08-22T15:15:11.691Z,22.32
2022-08-22T15:17:44.993Z,22.28
2022-08-22T15:20:28.117Z,22.32
2022-08-22T15:23:02.086Z,22.29
2022-08-22T15:25:35.085Z,22.33
2022-08-22T15:28:14.113Z,22.32
2022-08-22T15:30:54.076Z,22.33
2022-08-22T15:33:31.035Z,22.30
2022-08-22T15:36:11.346Z,22.32
2022-08-22T15:38:48.153Z,22.23
2022-08-22T15:41:38.637Z,22.31
2022-08-22T15:44:14.958Z,22.34
2022-08-22T15:47:06.012Z,22.40
2022-08-22T15:49:50.532Z,22.48
2022-08-22T15:52:26.080Z,22.56
2022-08-22T15:55:18.836Z,22.62
2022-08-22T15:58:00.401Z,22.59
2022-08-22T16:00:43.569Z,22.63
2022-08-22T16:03:24.921Z,22.66
2022-08-22T16:05:56.441Z,22.68
2022-08-22T16:08:32.686Z,22.72
2022-08-22T16:11:32.422Z,22.78
2022-08-22T16:14:24.075Z,22.81
2022-08-22T16:17:01.435Z,22.87
2022-08-22T16:19:31.616Z,22.88
2022-08-22T16:22:15.159Z,22.93
2022-08-22T16:25:14.365Z,22.81
2022-08-22T16:27:57.491Z,22.82
2022-08-22T16:30:36.927Z,22.68
2022-08-22T16:33:17.901Z,22.68
2022-08-22T16:36:25.801Z,22.69
2022-08-22T16:38:57.693Z,22.66
2022-08-22T16:41:33.882Z,22.66
2022-08-22T16:44:24.752Z,22.67
2022-08-22T16:46:55.383Z,22.61
2022-08-22T16:49:31.660Z,22.64
2022-08-22T16:52:37.457Z,22.61
2022-08-22T16:55:27.643Z,22.64
2022-08-22T16:58:08.162Z,22.58
2022-08-22T17:00:49.745Z,22.49
2022-08-22T17:03:27.674Z,22.48
2022-08-22T17:06:14.735Z,22.45
2022-08-22T17:08:57.530Z,22.38
2022-08-22T17:11:41.775Z,22.31
2022-08-22T17:14:36.596Z,22.28
2022-08-22T17:17:21.629Z,22.16
2022-08-22T17:20:03.025Z,22.04
2022-08-22T17:22:42.508Z,22.00
2022-08-22T17:25:20.762Z,21.94
2022-08-22T17:27:56.095Z,22.00
2022-08-22T17:30:30.085Z,21.96
2022-08-22T17:33:11.666Z,21.90
2022-08-22T17:36:03.041Z,21.92
2022-08-22T17:38:54.303Z,21.91
2022-08-22T17:41:31.954Z,21.94
2022-08-22T17:44:11.018Z,21.90
2022-08-22T17:46:47.061Z,21.82
2022-08-22T17:49:28.706Z,21.85
2022-08-22T17:52:07.696Z,21.84
2022-08-22T17:54:41.148Z,21.80
2022-08-22T17:57:14.390Z,21.73
2022-08-22T17:59:50.790Z,21.67
2022-08-22T18:02:24.641Z,21.63
2022-08-22T18:05:03.117Z,21.57
2022-08-22T18:07:41.088Z,21.58
2022-08-22T18:10:21.679Z,21.55
2022-08-22T18:12:55.000Z,21.51
2022-08-22T18:15:29.715Z,21.45
2022-08-22T18:18:03.808Z,21.44
2022-08-22T18:20:38.944Z,21.49
2022-08-22T18:23:24.878Z,21.42
2022-08-22T18:26:21.600Z,21.40
2022-08-22T18:28:58.315Z,21.41
2022-08-22T18:31:39.761Z,21.38
2022-08-22T18:34:15.753Z,21.40
2022-08-22T18:36:54.926Z,21.38
2022-08-22T18:39:29.489Z,21.36
2022-08-22T18:42:07.166Z,21.39
2022-08-22T18:44:39.036Z,21.42
2022-08-22T18:47:17.351Z,21.38
2022-08-22T18:49:54.175Z,21.35
2022-08-22T18:52:42.425Z,21.36
2022-08-22T18:55:31.400Z,21.32
2022-08-22T18:58:16.673Z,21.29
2022-08-22T19:00:58.503Z,21.25
2022-08-22T19:03:50.457Z,21.14
2022-08-22T19:06:47.801Z,21.05
2022-08-22T19:09:48.817Z,21.03
2022-08-22T19:12:37.085Z,20.99
2022-08-22T19:15:25.143Z,20.91
2022-08-22T19:18:30.906Z,20.94
2022-08-22T19:21:37.930Z,20.90
2022-08-22T19:24:09.041Z,20.83
2022-08-22T19:26:42.179Z,20.78
2022-08-22T19:29:48.103Z,20.83
2022-08-22T19:32:50.047Z,20.77
2022-08-22T19:35:26.118Z,20.68
2022-08-22T19:37:57.285Z,20.68
2022-08-22T19:40:56.205Z,20.61
2022-08-22T19:43:32.954Z,20.58
2022-08-22T19:46:04.755Z,20.50
2022-08-22T19:48:43.557Z,20.52
2022-08-22T19:51:25.530Z,20.49
2022-08-22T19:54:07.876Z,20.50
2022-08-22T19:56:52.458Z,20.39
2022-08-22T19:59:30.197Z,20.37
2022-08-22T20:02:06.466Z,20.42
2022-08-22T20:04:57.943Z,20.36
2022-08-22T20:07:39.274Z,20.39
2022-08-22T20:10:20.749Z,20.34
2022-08-22T20:13:04.335Z,20.27
2022-08-22T20:15:36.306Z,20.29
2022-08-22T20:19:09.551Z,20.29
2022-08-22T20:21:00.875Z,20.19
2022-08-22T20:23:32.366Z,20.22
2022-08-22T20:26:01.265Z,20.23
2022-08-22T20:28:47.601Z,20.14
2022-08-22T20:31:22.262Z,20.12
2022-08-22T20:33:56.549Z,20.12
2022-08-22T20:36:27.531Z,20.05
2022-08-22T20:39:03.298Z,20.04
2022-08-22T20:41:35.670Z,20.05
2022-08-22T20:44:12.502Z,19.99
2022-08-22T20:46:53.635Z,19.98
2022-08-22T20:49:28.451Z,19.96
2022-08-22T20:52:00.756Z,19.89
2022-08-22T20:54:32.109Z,19.97
2022-08-22T20:57:02.953Z,19.90
2022-08-22T20:59:38.035Z,19.97
2022-08-22T21:02:13.946Z,19.95
2022-08-22T21:04:50.053Z,20.02
2022-08-22T21:07:26.293Z,19.97
2022-08-22T21:10:21.612Z,19.91
2022-08-22T21:13:06.006Z,19.87
2022-08-22T21:15:37.620Z,19.92
2022-08-22T21:18:07.396Z,19.88
2022-08-22T21:20:38.488Z,19.89
2022-08-22T21:23:09.935Z,19.93
2022-08-22T21:25:53.422Z,19.91
2022-08-22T21:28:33.021Z,19.97
2022-08-22T21:31:10.471Z,19.96
2022-08-22T21:33:42.576Z,19.99
2022-08-22T21:36:13.203Z,19.97
2022-08-22T21:38:47.314Z,20.00
2022-08-22T21:41:25.880Z,19.99
2022-08-22T21:43:54.260Z,19.98
2022-08-22T21:46:28.976Z,19.99
2022-08-22T21:49:03.476Z,19.94
2022-08-22T21:51:41.945Z,19.88
2022-08-22T21:54:40.916Z,19.97
2022-08-22T21:57:32.702Z,19.87
2022-08-22T22:00:01.751Z,19.90
2022-08-22T22:02:36.397Z,19.83
2022-08-22T22:05:09.979Z,19.83
2022-08-22T22:07:41.846Z,19.80
2022-08-22T22:10:12.675Z,19.84
2022-08-22T22:12:44.235Z,19.84
2022-08-22T22:15:15.925Z,19.78
2022-08-22T22:17:44.200Z,19.79
2022-08-22T22:20:15.508Z,19.76
2022-08-22T22:22:46.643Z,19.75
2022-08-22T22:25:40.676Z,19.76
2022-08-22T22:28:08.093Z,19.74
2022-08-22T22:30:36.548Z,19.72
2022-08-22T22:33:05.864Z,19.66
2022-08-22T22:35:34.395Z,19.67
2022-08-22T22:38:02.558Z,19.57
2022-08-22T22:40:31.638Z,19.62
2022-08-22T22:42:59.767Z,19.61
2022-08-22T22:45:29.392Z,19.58
2022-08-22T22:47:57.899Z,19.53
2022-08-22T22:50:26.071Z,19.47
2022-08-22T22:52:54.357Z,19.41
2022-08-22T22:55:24.264Z,19.44
2022-08-22T22:57:59.124Z,19.42
2022-08-22T23:00:31.093Z,19.38
2022-08-22T23:03:00.538Z,19.38
2022-08-22T23:05:29.425Z,19.38
2022-08-22T23:07:58.672Z,19.35
2022-08-22T23:10:29.686Z,19.31
2022-08-22T23:12:58.093Z,19.34
2022-08-22T23:15:26.882Z,19.34
2022-08-22T23:17:56.435Z,19.33
2022-08-22T23:20:25.323Z,19.36
2022-08-22T23:22:53.418Z,19.37
2022-08-22T23:25:21.591Z,19.37
2022-08-22T23:27:52.473Z,19.36
2022-08-22T23:30:22.403Z,19.40
2022-08-22T23:32:50.483Z,19.36
2022-08-22T23:35:20.209Z,19.36
2022-08-22T23:37:48.342Z,19.37
2022-08-22T23:40:16.769Z,19.33
2022-08-22T23:42:44.918Z,19.38
2022-08-22T23:45:14.477Z,19.33
2022-08-22T23:47:42.598Z,19.30
2022-08-22T23:50:10.844Z,19.28
2022-08-22T23:52:40.293Z,19.29
2022-08-22T23:55:08.881Z,19.27
2022-08-22T23:57:36.951Z,19.18
